sensor_id;sensor_type;location;lat;lon;timestamp;pressure;altitude;pressure_sealevel;temperature;humidity
59419;BME280;45224;50.904;6.038;2023-01-27T00:00:06;100463.75;;;2.60;100.00
59419;BME280;45224;50.904;6.038;2023-01-27T00:01:42;100457.56;;;2.55;100.00
59419;BME280;45224;50.904;6.038;2023-01-27T00:03:13;100456.16;;;2.62;100.00
59419;BME280;45224;50.904;6.038;2023-01-27T00:04:43;100453.41;;;2.57;100.00
59419;BME280;45224;50.904;6.038;2023-01-27T00:06:14;100455.00;;;2.55;100.00
59419;BME280;45224;50.904;6.038;2023-01-27T00:07:44;100461.94;;;2.58;100.00
59419;BME280;45224;50.904;6.038;2023-01-27T00:09:15;100466.69;;;2.50;100.00
59419;BME280;45224;50.904;6.038;2023-01-27T00:10:45;100469.53;;;2.56;100.00
59419;BME280;45224;50.904;6.038;2023-01-27T00:12:24;100467.84;;;2.56;100.00
59419;BME280;45224;50.904;6.038;2023-01-27T00:14:13;100461.94;;;2.58;100.00
59419;BME280;45224;50.904;6.038;2023-01-27T00:15:44;100468.25;;;2.66;100.00
59419;BME280;45224;50.904;6.038;2023-01-27T00:17:14;100472.47;;;2.65;100.00
59419;BME280;45224;50.904;6.038;2023-01-27T00:18:45;100472.06;;;2.56;100.00
59419;BME280;45224;50.904;6.038;2023-01-27T00:20:15;100461.47;;;2.47;100.00
59419;BME280;45224;50.904;6.038;2023-01-27T00:22:04;100465.22;;;2.55;100.00
59419;BME280;45224;50.904;6.038;2023-01-27T00:23:53;100474.28;;;2.48;100.00
59419;BME280;45224;50.904;6.038;2023-01-27T00:25:42;100464.69;;;2.43;100.00
59419;BME280;45224;50.904;6.038;2023-01-27T00:27:12;100466.56;;;2.47;100.00
59419;BME280;45224;50.904;6.038;2023-01-27T00:28:44;100459.59;;;2.43;100.00
59419;BME280;45224;50.904;6.038;2023-01-27T00:30:15;100463.22;;;2.48;100.00
59419;BME280;45224;50.904;6.038;2023-01-27T00:31:46;100465.03;;;2.50;100.00
59419;BME280;45224;50.904;6.038;2023-01-27T00:33:35;100466.44;;;2.44;100.00
59419;BME280;45224;50.904;6.038;2023-01-27T00:35:05;100466.56;;;2.47;100.00
59419;BME280;45224;50.904;6.038;2023-01-27T00:36:38;100466.56;;;2.47;100.00
59419;BME280;45224;50.904;6.038;2023-01-27T00:38:09;100459.59;;;2.43;100.00
59419;BME280;45224;50.904;6.038;2023-01-27T00:39:39;100469.81;;;2.43;100.00
59419;BME280;45224;50.904;6.038;2023-01-27T00:41:13;100470.31;;;2.55;100.00
59419;BME280;45224;50.904;6.038;2023-01-27T00:42:50;100467.91;;;2.58;100.00
59419;BME280;45224;50.904;6.038;2023-01-27T00:44:20;100469.53;;;2.56;100.00
59419;BME280;45224;50.904;6.038;2023-01-27T00:45:53;100473.91;;;2.59;100.00
59419;BME280;45224;50.904;6.038;2023-01-27T00:47:23;100468.16;;;2.64;100.00
59419;BME280;45224;50.904;6.038;2023-01-27T00:48:53;100470.44;;;2.58;100.00
59419;BME280;45224;50.904;6.038;2023-01-27T00:50:24;100465.88;;;2.70;100.00
59419;BME280;45224;50.904;6.038;2023-01-27T00:51:54;100468.38;;;2.69;100.00
59419;BME280;45224;50.904;6.038;2023-01-27T00:53:25;100469.84;;;2.64;100.00
59419;BME280;45224;50.904;6.038;2023-01-27T00:54:56;100468.63;;;2.75;100.00
59419;BME280;45224;50.904;6.038;2023-01-27T00:56:26;100472.88;;;2.74;100.00
59419;BME280;45224;50.904;6.038;2023-01-27T00:57:58;100458.78;;;2.63;100.00
59419;BME280;45224;50.904;6.038;2023-01-27T00:59:29;100462.00;;;2.59;100.00
59419;BME280;45224;50.904;6.038;2023-01-27T01:01:01;100466.19;;;2.57;100.00
59419;BME280;45224;50.904;6.038;2023-01-27T01:02:32;100468.31;;;2.67;100.00
59419;BME280;45224;50.904;6.038;2023-01-27T01:04:03;100471.00;;;2.70;100.00
59419;BME280;45224;50.904;6.038;2023-01-27T01:05:34;100474.22;;;2.66;100.00
59419;BME280;45224;50.904;6.038;2023-01-27T01:07:05;100472.56;;;2.67;100.00
59419;BME280;45224;50.904;6.038;2023-01-27T01:08:36;100480.28;;;2.68;100.00
59419;BME280;45224;50.904;6.038;2023-01-27T01:10:08;100474.59;;;2.76;100.00
59419;BME280;45224;50.904;6.038;2023-01-27T01:11:39;100483.19;;;2.78;100.00
59419;BME280;45224;50.904;6.038;2023-01-27T01:13:09;100483.75;;;2.70;100.00
59419;BME280;45224;50.904;6.038;2023-01-27T01:14:42;100484.19;;;2.60;100.00
59419;BME280;45224;50.904;6.038;2023-01-27T01:16:18;100479.38;;;2.68;100.00
59419;BME280;45224;50.904;6.038;2023-01-27T01:17:50;100482.34;;;2.77;100.00
59419;BME280;45224;50.904;6.038;2023-01-27T01:19:21;100479.84;;;2.79;100.00
59419;BME280;45224;50.904;6.038;2023-01-27T01:20:51;100483.25;;;2.79;100.00
59419;BME280;45224;50.904;6.038;2023-01-27T01:22:21;100480.88;;;2.63;100.00
59419;BME280;45224;50.904;6.038;2023-01-27T01:23:52;100488.72;;;2.67;100.00
59419;BME280;45224;50.904;6.038;2023-01-27T01:25:23;100489.44;;;2.63;100.00
59419;BME280;45224;50.904;6.038;2023-01-27T01:26:54;100482.78;;;2.47;100.00
59419;BME280;45224;50.904;6.038;2023-01-27T01:28:24;100493.56;;;2.61;100.00
59419;BME280;45224;50.904;6.038;2023-01-27T01:29:55;100488.19;;;2.74;100.00
59419;BME280;45224;50.904;6.038;2023-01-27T01:31:25;100500.28;;;2.79;100.00
59419;BME280;45224;50.904;6.038;2023-01-27T01:32:56;100500.91;;;2.73;100.00
59419;BME280;45224;50.904;6.038;2023-01-27T01:34:27;100498.53;;;2.78;100.00
59419;BME280;45224;50.904;6.038;2023-01-27T01:36:03;100494.63;;;2.66;100.00
59419;BME280;45224;50.904;6.038;2023-01-27T01:37:34;100494.75;;;2.69;100.00
59419;BME280;45224;50.904;6.038;2023-01-27T01:39:04;100499.34;;;2.77;100.00
59419;BME280;45224;50.904;6.038;2023-01-27T01:40:47;100496.22;;;2.84;100.00
59419;BME280;45224;50.904;6.038;2023-01-27T01:42:18;100495.56;;;2.88;100.00
59419;BME280;45224;50.904;6.038;2023-01-27T01:43:49;100503.22;;;2.88;100.00
59419;BME280;45224;50.904;6.038;2023-01-27T01:47:03;100503.09;;;2.85;100.00
59419;BME280;45224;50.904;6.038;2023-01-27T01:48:50;100495.84;;;2.94;100.00
59419;BME280;45224;50.904;6.038;2023-01-27T01:50:22;100501.16;;;3.00;100.00
59419;BME280;45224;50.904;6.038;2023-01-27T01:51:59;100499.41;;;2.78;100.00
59419;BME280;45224;50.904;6.038;2023-01-27T01:53:35;100496.31;;;2.85;100.00
59419;BME280;45224;50.904;6.038;2023-01-27T01:55:07;100494.38;;;2.80;100.00
59419;BME280;45224;50.904;6.038;2023-01-27T01:56:46;100497.19;;;2.66;100.00
59419;BME280;45224;50.904;6.038;2023-01-27T01:58:17;100505.59;;;2.64;100.00
59419;BME280;45224;50.904;6.038;2023-01-27T01:59:54;100491.91;;;2.62;100.00
59419;BME280;45224;50.904;6.038;2023-01-27T02:01:25;100499.28;;;2.75;100.00
59419;BME280;45224;50.904;6.038;2023-01-27T02:02:56;100495.03;;;2.76;100.00
59419;BME280;45224;50.904;6.038;2023-01-27T02:04:31;100496.78;;;2.77;100.00
59419;BME280;45224;50.904;6.038;2023-01-27T02:06:03;100492.34;;;2.72;100.00
59419;BME280;45224;50.904;6.038;2023-01-27T02:09:20;100489.41;;;2.83;100.00
59419;BME280;45224;50.904;6.038;2023-01-27T02:10:52;100498.13;;;2.88;100.00
59419;BME280;45224;50.904;6.038;2023-01-27T02:12:23;100495.84;;;2.94;100.00
59419;BME280;45224;50.904;6.038;2023-01-27T02:13:54;100497.44;;;2.92;100.00
59419;BME280;45224;50.904;6.038;2023-01-27T02:15:24;100505.25;;;2.76;100.00
59419;BME280;45224;50.904;6.038;2023-01-27T02:16:56;100499.75;;;2.66;100.00
59419;BME280;45224;50.904;6.038;2023-01-27T02:18:27;100499.94;;;2.71;100.00
59419;BME280;45224;50.904;6.038;2023-01-27T02:20:21;100503.91;;;2.64;100.00
59419;BME280;45224;50.904;6.038;2023-01-27T02:21:55;100502.28;;;2.66;100.00
59419;BME280;45224;50.904;6.038;2023-01-27T02:26:52;100505.66;;;2.65;100.00
59419;BME280;45224;50.904;6.038;2023-01-27T02:28:26;100487.53;;;2.40;100.00
59419;BME280;45224;50.904;6.038;2023-01-27T02:29:58;100501.22;;;2.61;100.00
59419;BME280;45224;50.904;6.038;2023-01-27T02:31:29;100506.75;;;2.70;100.00
59419;BME280;45224;50.904;6.038;2023-01-27T02:33:00;100498.28;;;2.71;100.00
59419;BME280;45224;50.904;6.038;2023-01-27T02:34:32;100500.00;;;2.72;100.00
59419;BME280;45224;50.904;6.038;2023-01-27T02:36:06;100502.03;;;2.80;100.00
59419;BME280;45224;50.904;6.038;2023-01-27T02:37:38;100496.78;;;2.77;100.00
59419;BME280;45224;50.904;6.038;2023-01-27T02:39:12;100499.63;;;2.83;100.00
59419;BME280;45224;50.904;6.038;2023-01-27T02:40:46;100499.00;;;2.88;100.00
59419;BME280;45224;50.904;6.038;2023-01-27T02:42:18;100497.06;;;2.83;100.00
59419;BME280;45224;50.904;6.038;2023-01-27T02:43:50;100497.28;;;2.89;100.00
59419;BME280;45224;50.904;6.038;2023-01-27T02:45:21;100493.94;;;2.90;100.00
59419;BME280;45224;50.904;6.038;2023-01-27T02:46:51;100498.16;;;2.68;100.00
59419;BME280;45224;50.904;6.038;2023-01-27T02:48:22;100494.97;;;2.74;100.00
59419;BME280;45224;50.904;6.038;2023-01-27T02:49:52;100495.47;;;2.65;100.00
59419;BME280;45224;50.904;6.038;2023-01-27T02:51:23;100504.59;;;2.80;100.00
59419;BME280;45224;50.904;6.038;2023-01-27T02:52:54;100497.25;;;2.68;100.00
59419;BME280;45224;50.904;6.038;2023-01-27T02:54:26;100502.97;;;2.62;100.00
59419;BME280;45224;50.904;6.038;2023-01-27T02:55:56;100496.13;;;2.61;100.00
59419;BME280;45224;50.904;6.038;2023-01-27T02:57:27;100509.81;;;2.44;100.00
59419;BME280;45224;50.904;6.038;2023-01-27T02:59:29;100501.72;;;2.52;100.00
59419;BME280;45224;50.904;6.038;2023-01-27T03:01:00;100506.34;;;2.42;100.00
59419;BME280;45224;50.904;6.038;2023-01-27T03:02:30;100498.69;;;2.42;100.00
59419;BME280;45224;50.904;6.038;2023-01-27T03:04:01;100507.88;;;2.38;100.00
59419;BME280;45224;50.904;6.038;2023-01-27T03:05:32;100498.47;;;2.37;100.00
59419;BME280;45224;50.904;6.038;2023-01-27T03:07:02;100509.81;;;2.44;100.00
59419;BME280;45224;50.904;6.038;2023-01-27T03:08:33;100492.50;;;2.36;100.00
59419;BME280;45224;50.904;6.038;2023-01-27T03:10:04;100501.34;;;2.25;100.00
59419;BME280;45224;50.904;6.038;2023-01-27T03:11:34;100498.75;;;2.24;100.00
59419;BME280;45224;50.904;6.038;2023-01-27T03:13:25;100502.38;;;2.29;100.00
59419;BME280;45224;50.904;6.038;2023-01-27T03:14:57;100492.16;;;2.29;100.00
59419;BME280;45224;50.904;6.038;2023-01-27T03:16:46;100488.94;;;2.33;100.00
59419;BME280;45224;50.904;6.038;2023-01-27T03:18:36;100500.88;;;2.34;100.00
59419;BME280;45224;50.904;6.038;2023-01-27T03:20:07;100493.84;;;2.28;100.00
59419;BME280;45224;50.904;6.038;2023-01-27T03:21:38;100492.56;;;2.38;100.00
59419;BME280;45224;50.904;6.038;2023-01-27T03:23:09;100501.34;;;2.25;100.00
59419;BME280;45224;50.904;6.038;2023-01-27T03:24:41;100504.03;;;2.09;100.00
59419;BME280;45224;50.904;6.038;2023-01-27T03:26:13;100485.59;;;1.96;100.00
59419;BME280;45224;50.904;6.038;2023-01-27T03:27:48;100503.44;;;1.96;100.00
59419;BME280;45224;50.904;6.038;2023-01-27T03:29:39;100501.97;;;2.01;100.00
59419;BME280;45224;50.904;6.038;2023-01-27T03:31:25;100500.84;;;1.95;100.00
59419;BME280;45224;50.904;6.038;2023-01-27T03:33:02;100506.53;;;1.89;100.00
59419;BME280;45224;50.904;6.038;2023-01-27T03:34:48;100494.97;;;1.78;100.00
59419;BME280;45224;50.904;6.038;2023-01-27T03:36:29;100503.78;;;1.85;100.00
59419;BME280;45224;50.904;6.038;2023-01-27T03:38:19;100507.75;;;1.97;100.00
59419;BME280;45224;50.904;6.038;2023-01-27T03:40:09;100501.69;;;1.95;100.00
59419;BME280;45224;50.904;6.038;2023-01-27T03:41:58;100509.69;;;2.03;100.00
59419;BME280;45224;50.904;6.038;2023-01-27T03:43:49;100506.06;;;1.98;100.00
59419;BME280;45224;50.904;6.038;2023-01-27T03:45:43;100495.00;;;1.97;100.00
59419;BME280;45224;50.904;6.038;2023-01-27T03:47:33;100520.06;;;2.06;100.00
59419;BME280;45224;50.904;6.038;2023-01-27T03:49:03;100508.31;;;2.10;100.00
59419;BME280;45224;50.904;6.038;2023-01-27T03:50:34;100504.47;;;2.00;100.00
59419;BME280;45224;50.904;6.038;2023-01-27T03:52:12;100511.50;;;1.86;100.00
59419;BME280;45224;50.904;6.038;2023-01-27T03:53:42;100521.97;;;1.92;100.00
59419;BME280;45224;50.904;6.038;2023-01-27T03:55:13;100525.97;;;1.87;100.00
59419;BME280;45224;50.904;6.038;2023-01-27T03:56:44;100524.97;;;1.83;100.00
59419;BME280;45224;50.904;6.038;2023-01-27T03:58:29;100522.88;;;1.75;100.00
59419;BME280;45224;50.904;6.038;2023-01-27T04:00:00;100532.91;;;1.90;100.00
59419;BME280;45224;50.904;6.038;2023-01-27T04:01:30;100532.19;;;1.92;100.00
59419;BME280;45224;50.904;6.038;2023-01-27T04:03:00;100541.34;;;1.89;100.00
59419;BME280;45224;50.904;6.038;2023-01-27T04:04:49;100536.31;;;1.90;100.00
59419;BME280;45224;50.904;6.038;2023-01-27T04:06:40;100540.63;;;1.91;100.00
59419;BME280;45224;50.904;6.038;2023-01-27T04:08:30;100538.72;;;1.87;100.00
59419;BME280;45224;50.904;6.038;2023-01-27T04:10:01;100536.84;;;1.83;100.00
59419;BME280;45224;50.904;6.038;2023-01-27T04:11:32;100543.56;;;1.81;100.00
59419;BME280;45224;50.904;6.038;2023-01-27T04:13:22;100543.81;;;1.87;100.00
59419;BME280;45224;50.904;6.038;2023-01-27T04:14:52;100547.59;;;1.95;100.00
59419;BME280;45224;50.904;6.038;2023-01-27T04:16:22;100547.50;;;1.92;100.00
59419;BME280;45224;50.904;6.038;2023-01-27T04:17:58;100550.53;;;1.85;100.00
59419;BME280;45224;50.904;6.038;2023-01-27T04:19:28;100546.28;;;1.86;100.00
59419;BME280;45224;50.904;6.038;2023-01-27T04:20:59;100553.81;;;2.00;100.00
59419;BME280;45224;50.904;6.038;2023-01-27T04:22:29;100552.59;;;1.92;100.00
59419;BME280;45224;50.904;6.038;2023-01-27T04:24:00;100553.66;;;1.97;100.00
59419;BME280;45224;50.904;6.038;2023-01-27T04:25:30;100558.63;;;1.94;100.00
59419;BME280;45224;50.904;6.038;2023-01-27T04:27:03;100564.38;;;1.90;100.00
59419;BME280;45224;50.904;6.038;2023-01-27T04:28:34;100557.03;;;1.78;100.00
59419;BME280;45224;50.904;6.038;2023-01-27T04:30:05;100566.44;;;1.79;100.00
59419;BME280;45224;50.904;6.038;2023-01-27T04:31:36;100571.06;;;1.88;100.00
59419;BME280;45224;50.904;6.038;2023-01-27T04:33:07;100564.59;;;1.77;100.00
59419;BME280;45224;50.904;6.038;2023-01-27T04:34:39;100570.78;;;1.82;100.00
59419;BME280;45224;50.904;6.038;2023-01-27T04:36:10;100565.44;;;1.59;100.00
59419;BME280;45224;50.904;6.038;2023-01-27T04:37:44;100582.72;;;1.47;100.00
59419;BME280;45224;50.904;6.038;2023-01-27T04:39:15;100571.69;;;1.48;100.00
59419;BME280;45224;50.904;6.038;2023-01-27T04:40:47;100572.53;;;1.47;100.00
59419;BME280;45224;50.904;6.038;2023-01-27T04:42:17;100580.09;;;1.63;100.00
59419;BME280;45224;50.904;6.038;2023-01-27T04:43:47;100579.13;;;1.61;100.00
59419;BME280;45224;50.904;6.038;2023-01-27T04:45:18;100585.63;;;1.73;100.00
59419;BME280;45224;50.904;6.038;2023-01-27T04:46:49;100581.06;;;1.66;100.00
59419;BME280;45224;50.904;6.038;2023-01-27T04:48:19;100583.44;;;1.62;100.00
59419;BME280;45224;50.904;6.038;2023-01-27T04:49:50;100581.56;;;1.58;100.00
59419;BME280;45224;50.904;6.038;2023-01-27T04:51:20;100583.06;;;1.55;100.00
59419;BME280;45224;50.904;6.038;2023-01-27T04:52:51;100587.00;;;1.48;100.00
59419;BME280;45224;50.904;6.038;2023-01-27T04:54:21;100592.13;;;1.32;100.00
59419;BME280;45224;50.904;6.038;2023-01-27T04:55:52;100585.44;;;1.34;100.00
59419;BME280;45224;50.904;6.038;2023-01-27T04:57:29;100584.72;;;1.36;100.00
59419;BME280;45224;50.904;6.038;2023-01-27T04:59:02;100594.47;;;1.45;100.00
59419;BME280;45224;50.904;6.038;2023-01-27T05:00:33;100588.69;;;1.48;100.00
59419;BME280;45224;50.904;6.038;2023-01-27T05:02:04;100599.44;;;1.42;100.00
59419;BME280;45224;50.904;6.038;2023-01-27T05:03:34;100596.41;;;1.49;100.00
59419;BME280;45224;50.904;6.038;2023-01-27T05:05:05;100596.72;;;1.55;100.00
59419;BME280;45224;50.904;6.038;2023-01-27T05:06:35;100602.38;;;1.68;100.00
59419;BME280;45224;50.904;6.038;2023-01-27T05:08:08;100597.13;;;1.64;100.00
59419;BME280;45224;50.904;6.038;2023-01-27T05:09:39;100605.44;;;1.60;100.00
59419;BME280;45224;50.904;6.038;2023-01-27T05:11:10;100605.00;;;1.69;100.00
59419;BME280;45224;50.904;6.038;2023-01-27T05:12:41;100601.75;;;1.72;100.00
59419;BME280;45224;50.904;6.038;2023-01-27T05:14:11;100602.22;;;1.64;100.00
59419;BME280;45224;50.904;6.038;2023-01-27T05:15:43;100610.25;;;1.54;100.00
59419;BME280;45224;50.904;6.038;2023-01-27T05:17:13;100595.47;;;1.47;100.00
59419;BME280;45224;50.904;6.038;2023-01-27T05:18:46;100606.59;;;1.49;100.00
59419;BME280;45224;50.904;6.038;2023-01-27T05:20:16;100598.88;;;1.48;100.00
59419;BME280;45224;50.904;6.038;2023-01-27T05:21:47;100607.06;;;1.58;100.00
59419;BME280;45224;50.904;6.038;2023-01-27T05:23:17;100610.34;;;1.74;100.00
59419;BME280;45224;50.904;6.038;2023-01-27T05:25:07;100600.66;;;1.67;100.00
59419;BME280;45224;50.904;6.038;2023-01-27T05:26:37;100595.81;;;1.55;100.00
59419;BME280;45224;50.904;6.038;2023-01-27T05:28:07;100595.94;;;1.40;100.00
59419;BME280;45224;50.904;6.038;2023-01-27T05:29:38;100598.88;;;1.48;100.00
59419;BME280;45224;50.904;6.038;2023-01-27T05:31:14;100609.22;;;1.51;100.00
59419;BME280;45224;50.904;6.038;2023-01-27T05:32:45;100603.53;;;1.56;100.00
59419;BME280;45224;50.904;6.038;2023-01-27T05:34:16;100599.56;;;1.45;100.00
59419;BME280;45224;50.904;6.038;2023-01-27T05:35:46;100605.34;;;1.41;100.00
59419;BME280;45224;50.904;6.038;2023-01-27T05:37:17;100604.84;;;1.48;100.00
59419;BME280;45224;50.904;6.038;2023-01-27T05:38:47;100596.81;;;1.40;100.00
59419;BME280;45224;50.904;6.038;2023-01-27T05:40:18;100605.06;;;1.53;100.00
59419;BME280;45224;50.904;6.038;2023-01-27T05:41:48;100604.84;;;1.48;100.00
59419;BME280;45224;50.904;6.038;2023-01-27T05:43:19;100607.75;;;1.56;100.00
59419;BME280;45224;50.904;6.038;2023-01-27T05:44:49;100609.13;;;1.49;100.00
59419;BME280;45224;50.904;6.038;2023-01-27T05:46:23;100606.28;;;1.43;100.00
59419;BME280;45224;50.904;6.038;2023-01-27T05:47:53;100609.13;;;1.49;100.00
59419;BME280;45224;50.904;6.038;2023-01-27T05:49:24;100604.28;;;1.54;100.00
59419;BME280;45224;50.904;6.038;2023-01-27T05:50:56;100601.66;;;1.52;100.00
59419;BME280;45224;50.904;6.038;2023-01-27T05:52:26;100604.28;;;1.54;100.00
59419;BME280;45224;50.904;6.038;2023-01-27T05:53:57;100609.00;;;1.46;100.00
59419;BME280;45224;50.904;6.038;2023-01-27T05:55:28;100605.13;;;1.54;100.00
59419;BME280;45224;50.904;6.038;2023-01-27T05:56:58;100585.53;;;1.53;100.00
59419;BME280;45224;50.904;6.038;2023-01-27T05:58:29;100600.50;;;1.63;100.00
59419;BME280;45224;50.904;6.038;2023-01-27T06:00:00;100602.03;;;1.60;100.00
59419;BME280;45224;50.904;6.038;2023-01-27T06:01:32;100600.00;;;1.71;100.00
59419;BME280;45224;50.904;6.038;2023-01-27T06:03:03;100599.34;;;1.75;100.00
59419;BME280;45224;50.904;6.038;2023-01-27T06:04:33;100602.38;;;1.68;100.00
59419;BME280;45224;50.904;6.038;2023-01-27T06:06:04;100603.28;;;1.68;100.00
59419;BME280;45224;50.904;6.038;2023-01-27T06:07:35;100591.56;;;1.72;100.00
59419;BME280;45224;50.904;6.038;2023-01-27T06:09:06;100605.13;;;1.54;100.00
59419;BME280;45224;50.904;6.038;2023-01-27T06:10:36;100607.47;;;1.50;100.00
59419;BME280;45224;50.904;6.038;2023-01-27T06:12:07;100613.56;;;1.70;100.00
59419;BME280;45224;50.904;6.038;2023-01-27T06:13:37;100610.25;;;1.54;100.00
59419;BME280;45224;50.904;6.038;2023-01-27T06:15:08;100606.53;;;1.66;100.00
59419;BME280;45224;50.904;6.038;2023-01-27T06:16:39;100606.19;;;1.76;100.00
59419;BME280;45224;50.904;6.038;2023-01-27T06:18:10;100610.84;;;1.67;100.00
59419;BME280;45224;50.904;6.038;2023-01-27T06:19:41;100607.06;;;1.58;100.00
59419;BME280;45224;50.904;6.038;2023-01-27T06:21:13;100612.72;;;1.71;100.00
59419;BME280;45224;50.904;6.038;2023-01-27T06:22:44;100612.88;;;1.74;100.00
59419;BME280;45224;50.904;6.038;2023-01-27T06:24:14;100619.81;;;1.58;100.00
59419;BME280;45224;50.904;6.038;2023-01-27T06:25:46;100610.09;;;1.51;100.00
59419;BME280;45224;50.904;6.038;2023-01-27T06:27:17;100621.91;;;1.67;100.00
59419;BME280;45224;50.904;6.038;2023-01-27T06:28:48;100611.72;;;1.67;100.00
59419;BME280;45224;50.904;6.038;2023-01-27T06:30:18;100623.38;;;1.80;100.00
59419;BME280;45224;50.904;6.038;2023-01-27T06:31:49;100622.72;;;1.84;100.00
59419;BME280;45224;50.904;6.038;2023-01-27T06:33:19;100619.97;;;1.79;100.00
59419;BME280;45224;50.904;6.038;2023-01-27T06:34:49;100627.91;;;1.86;100.00
59419;BME280;45224;50.904;6.038;2023-01-27T06:36:21;100627.72;;;1.64;100.00
59419;BME280;45224;50.904;6.038;2023-01-27T06:37:51;100623.16;;;1.75;100.00
59419;BME280;45224;50.904;6.038;2023-01-27T06:39:22;100624.03;;;1.76;100.00
59419;BME280;45224;50.904;6.038;2023-01-27T06:40:52;100624.63;;;1.88;100.00
59419;BME280;45224;50.904;6.038;2023-01-27T06:42:23;100626.88;;;1.82;100.00
59419;BME280;45224;50.904;6.038;2023-01-27T06:43:53;100630.81;;;1.93;100.00
59419;BME280;45224;50.904;6.038;2023-01-27T06:45:24;100630.03;;;1.94;100.00
59419;BME280;45224;50.904;6.038;2023-01-27T06:46:55;100633.59;;;1.80;100.00
59419;BME280;45224;50.904;6.038;2023-01-27T06:48:26;100628.31;;;1.59;100.00
59419;BME280;45224;50.904;6.038;2023-01-27T06:49:56;100633.13;;;1.71;100.00
59419;BME280;45224;50.904;6.038;2023-01-27T06:51:27;100632.03;;;1.66;100.00
59419;BME280;45224;50.904;6.038;2023-01-27T06:53:03;100628.19;;;1.74;100.00
59419;BME280;45224;50.904;6.038;2023-01-27T06:54:34;100639.53;;;1.62;100.00
59419;BME280;45224;50.904;6.038;2023-01-27T06:56:05;100631.91;;;1.46;100.00
59419;BME280;45224;50.904;6.038;2023-01-27T06:57:36;100642.38;;;1.34;100.00
59419;BME280;45224;50.904;6.038;2023-01-27T06:59:06;100641.63;;;1.53;100.00
59419;BME280;45224;50.904;6.038;2023-01-27T07:00:38;100639.19;;;1.38;100.00
59419;BME280;45224;50.904;6.038;2023-01-27T07:02:11;100644.81;;;1.49;100.00
59419;BME280;45224;50.904;6.038;2023-01-27T07:03:42;100646.41;;;1.31;100.00
59419;BME280;45224;50.904;6.038;2023-01-27T07:05:12;100647.88;;;1.25;100.00
59419;BME280;45224;50.904;6.038;2023-01-27T07:06:43;100636.91;;;1.10;100.00
59419;BME280;45224;50.904;6.038;2023-01-27T07:08:13;100649.72;;;1.28;100.00
59419;BME280;45224;50.904;6.038;2023-01-27T07:09:44;100649.94;;;1.33;100.00
59419;BME280;45224;50.904;6.038;2023-01-27T07:11:14;100639.19;;;1.38;100.00
59419;BME280;45224;50.904;6.038;2023-01-27T07:12:45;100644.28;;;1.38;100.00
59419;BME280;45224;50.904;6.038;2023-01-27T07:14:15;100648.66;;;1.41;100.00
59419;BME280;45224;50.904;6.038;2023-01-27T07:15:46;100651.03;;;1.54;100.00
59419;BME280;45224;50.904;6.038;2023-01-27T07:17:17;100649.56;;;1.59;100.00
59419;BME280;45224;50.904;6.038;2023-01-27T07:18:48;100651.03;;;1.54;100.00
59419;BME280;45224;50.904;6.038;2023-01-27T07:20:18;100660.06;;;1.66;100.00
59419;BME280;45224;50.904;6.038;2023-01-27T07:21:49;100662.13;;;1.73;100.00
59419;BME280;45224;50.904;6.038;2023-01-27T07:23:19;100649.09;;;1.67;100.00
59419;BME280;45224;50.904;6.038;2023-01-27T07:24:50;100656.28;;;1.57;100.00
59419;BME280;45224;50.904;6.038;2023-01-27T07:26:20;100664.75;;;1.74;100.00
59419;BME280;45224;50.904;6.038;2023-01-27T07:27:51;100663.31;;;1.79;100.00
59419;BME280;45224;50.904;6.038;2023-01-27T07:29:22;100666.59;;;1.77;100.00
59419;BME280;45224;50.904;6.038;2023-01-27T07:30:52;100660.97;;;1.84;100.00
59419;BME280;45224;50.904;6.038;2023-01-27T07:32:23;100668.28;;;1.94;100.00
59419;BME280;45224;50.904;6.038;2023-01-27T07:33:53;100668.28;;;1.94;100.00
59419;BME280;45224;50.904;6.038;2023-01-27T07:35:24;100657.25;;;1.77;100.00
59419;BME280;45224;50.904;6.038;2023-01-27T07:36:54;100655.88;;;1.84;100.00
59419;BME280;45224;50.904;6.038;2023-01-27T07:38:25;100667.53;;;1.97;100.00
59419;BME280;45224;50.904;6.038;2023-01-27T07:39:56;100667.34;;;1.92;100.00
59419;BME280;45224;50.904;6.038;2023-01-27T07:41:27;100664.81;;;1.92;100.00
59419;BME280;45224;50.904;6.038;2023-01-27T07:42:58;100665.34;;;1.87;100.00
59419;BME280;45224;50.904;6.038;2023-01-27T07:44:30;100667.69;;;1.82;100.00
59419;BME280;45224;50.904;6.038;2023-01-27T07:46:01;100668.69;;;1.86;100.00
59419;BME280;45224;50.904;6.038;2023-01-27T07:47:31;100665.78;;;1.78;100.00
59419;BME280;45224;50.904;6.038;2023-01-27T07:49:02;100658.63;;;1.71;100.00
59419;BME280;45224;50.904;6.038;2023-01-27T07:50:37;100663.53;;;1.84;100.00
59419;BME280;45224;50.904;6.038;2023-01-27T07:52:08;100669.75;;;1.89;100.00
59419;BME280;45224;50.904;6.038;2023-01-27T07:53:39;100677.88;;;1.82;100.00
59419;BME280;45224;50.904;6.038;2023-01-27T07:55:10;100673.16;;;1.90;100.00
59419;BME280;45224;50.904;6.038;2023-01-27T07:56:40;100674.03;;;1.90;100.00
59419;BME280;45224;50.904;6.038;2023-01-27T07:58:11;100666.06;;;1.84;100.00
59419;BME280;45224;50.904;6.038;2023-01-27T07:59:41;100668.44;;;1.79;100.00
59419;BME280;45224;50.904;6.038;2023-01-27T08:01:12;100666.78;;;1.63;100.00
59419;BME280;45224;50.904;6.038;2023-01-27T08:02:43;100664.47;;;1.68;100.00
59419;BME280;45224;50.904;6.038;2023-01-27T08:04:13;100669.97;;;1.59;100.00
59419;BME280;45224;50.904;6.038;2023-01-27T08:05:43;100663.88;;;1.74;100.00
59419;BME280;45224;50.904;6.038;2023-01-27T08:07:14;100668.63;;;1.84;100.00
59419;BME280;45224;50.904;6.038;2023-01-27T08:08:45;100669.13;;;1.77;100.00
59419;BME280;45224;50.904;6.038;2023-01-27T08:10:17;100674.06;;;1.74;100.00
59419;BME280;45224;50.904;6.038;2023-01-27T08:11:50;100673.53;;;1.63;100.00